sensor_id;sensor_type;location;lat;lon;timestamp;P1;durP1;ratioP1;P2;durP2;ratioP2
69226;SDS011;56334;52.398;7.552;2023-06-10T00:02:07;10.38;;;4.55;;
69226;SDS011;56334;52.398;7.552;2023-06-10T00:04:33;10.57;;;4.47;;
69226;SDS011;56334;52.398;7.552;2023-06-10T00:07:02;12.35;;;4.82;;
69226;SDS011;56334;52.398;7.552;2023-06-10T00:09:28;11.82;;;4.30;;
69226;SDS011;56334;52.398;7.552;2023-06-10T00:11:54;11.35;;;4.63;;
69226;SDS011;56334;52.398;7.552;2023-06-10T00:14:21;13.07;;;4.70;;
69226;SDS011;56334;52.398;7.552;2023-06-10T00:16:47;13.15;;;4.88;;
69226;SDS011;56334;52.398;7.552;2023-06-10T00:19:13;13.35;;;4.85;;
69226;SDS011;56334;52.398;7.552;2023-06-10T00:21:40;11.60;;;4.75;;
69226;SDS011;56334;52.398;7.552;2023-06-10T00:24:07;13.68;;;4.78;;
69226;SDS011;56334;52.398;7.552;2023-06-10T00:26:38;10.68;;;4.70;;
69226;SDS011;56334;52.398;7.552;2023-06-10T00:29:05;9.43;;;4.72;;
69226;SDS011;56334;52.398;7.552;2023-06-10T00:31:33;11.30;;;4.50;;
69226;SDS011;56334;52.398;7.552;2023-06-10T00:33:59;10.93;;;4.55;;
69226;SDS011;56334;52.398;7.552;2023-06-10T00:36:25;11.90;;;4.43;;
69226;SDS011;56334;52.398;7.552;2023-06-10T00:38:52;12.02;;;4.65;;
69226;SDS011;56334;52.398;7.552;2023-06-10T00:41:18;11.27;;;4.35;;
69226;SDS011;56334;52.398;7.552;2023-06-10T00:43:44;11.05;;;4.80;;
69226;SDS011;56334;52.398;7.552;2023-06-10T00:46:11;13.93;;;4.78;;
69226;SDS011;56334;52.398;7.552;2023-06-10T00:48:37;12.52;;;4.85;;
69226;SDS011;56334;52.398;7.552;2023-06-10T00:51:04;10.35;;;4.68;;
69226;SDS011;56334;52.398;7.552;2023-06-10T00:53:31;12.35;;;5.13;;
69226;SDS011;56334;52.398;7.552;2023-06-10T00:55:57;11.30;;;4.40;;
69226;SDS011;56334;52.398;7.552;2023-06-10T00:58:24;10.98;;;5.00;;
69226;SDS011;56334;52.398;7.552;2023-06-10T01:00:50;11.35;;;4.78;;
69226;SDS011;56334;52.398;7.552;2023-06-10T01:03:17;10.88;;;4.68;;
69226;SDS011;56334;52.398;7.552;2023-06-10T01:05:43;11.88;;;4.97;;
69226;SDS011;56334;52.398;7.552;2023-06-10T01:08:19;13.88;;;5.15;;
69226;SDS011;56334;52.398;7.552;2023-06-10T01:13:12;12.27;;;4.93;;
69226;SDS011;56334;52.398;7.552;2023-06-10T01:15:39;12.40;;;5.03;;
69226;SDS011;56334;52.398;7.552;2023-06-10T01:18:06;12.23;;;4.70;;
69226;SDS011;56334;52.398;7.552;2023-06-10T01:20:34;12.40;;;4.80;;
69226;SDS011;56334;52.398;7.552;2023-06-10T01:23:02;14.25;;;4.65;;
69226;SDS011;56334;52.398;7.552;2023-06-10T01:25:28;11.55;;;4.65;;
69226;SDS011;56334;52.398;7.552;2023-06-10T01:28:12;12.15;;;4.53;;
69226;SDS011;56334;52.398;7.552;2023-06-10T01:33:09;11.07;;;4.85;;
69226;SDS011;56334;52.398;7.552;2023-06-10T01:35:36;10.38;;;4.13;;
69226;SDS011;56334;52.398;7.552;2023-06-10T01:38:04;11.65;;;4.75;;
69226;SDS011;56334;52.398;7.552;2023-06-10T01:40:30;11.35;;;4.63;;
69226;SDS011;56334;52.398;7.552;2023-06-10T01:42:56;10.30;;;4.63;;
69226;SDS011;56334;52.398;7.552;2023-06-10T01:45:22;13.75;;;5.40;;
69226;SDS011;56334;52.398;7.552;2023-06-10T01:47:48;12.65;;;5.15;;
69226;SDS011;56334;52.398;7.552;2023-06-10T01:50:14;10.55;;;4.78;;
69226;SDS011;56334;52.398;7.552;2023-06-10T01:55:07;11.90;;;4.90;;
69226;SDS011;56334;52.398;7.552;2023-06-10T01:57:33;13.30;;;4.78;;
69226;SDS011;56334;52.398;7.552;2023-06-10T01:59:59;10.10;;;4.90;;
69226;SDS011;56334;52.398;7.552;2023-06-10T02:02:25;14.70;;;5.00;;
69226;SDS011;56334;52.398;7.552;2023-06-10T02:04:51;11.77;;;5.43;;
69226;SDS011;56334;52.398;7.552;2023-06-10T02:07:17;11.43;;;5.32;;
69226;SDS011;56334;52.398;7.552;2023-06-10T02:09:43;12.40;;;5.30;;
69226;SDS011;56334;52.398;7.552;2023-06-10T02:12:09;11.63;;;4.90;;
69226;SDS011;56334;52.398;7.552;2023-06-10T02:14:36;11.68;;;5.00;;
69226;SDS011;56334;52.398;7.552;2023-06-10T02:17:02;11.90;;;5.05;;
69226;SDS011;56334;52.398;7.552;2023-06-10T02:19:29;11.00;;;4.57;;
69226;SDS011;56334;52.398;7.552;2023-06-10T02:21:55;12.77;;;4.75;;
69226;SDS011;56334;52.398;7.552;2023-06-10T02:24:21;10.50;;;4.50;;
69226;SDS011;56334;52.398;7.552;2023-06-10T02:26:47;10.90;;;4.85;;
69226;SDS011;56334;52.398;7.552;2023-06-10T02:29:14;12.73;;;4.90;;
69226;SDS011;56334;52.398;7.552;2023-06-10T02:31:40;10.25;;;4.80;;
69226;SDS011;56334;52.398;7.552;2023-06-10T02:34:06;12.65;;;5.18;;
69226;SDS011;56334;52.398;7.552;2023-06-10T02:36:32;10.73;;;4.63;;
69226;SDS011;56334;52.398;7.552;2023-06-10T02:39:00;10.73;;;4.40;;
69226;SDS011;56334;52.398;7.552;2023-06-10T02:41:27;11.80;;;5.40;;
69226;SDS011;56334;52.398;7.552;2023-06-10T02:43:53;12.25;;;5.20;;
69226;SDS011;56334;52.398;7.552;2023-06-10T02:46:19;13.50;;;5.20;;
69226;SDS011;56334;52.398;7.552;2023-06-10T02:48:46;12.43;;;5.35;;
69226;SDS011;56334;52.398;7.552;2023-06-10T02:51:14;12.40;;;5.05;;
69226;SDS011;56334;52.398;7.552;2023-06-10T02:53:40;11.50;;;4.70;;
69226;SDS011;56334;52.398;7.552;2023-06-10T02:56:06;13.07;;;4.80;;
69226;SDS011;56334;52.398;7.552;2023-06-10T02:58:32;12.02;;;5.00;;
69226;SDS011;56334;52.398;7.552;2023-06-10T03:00:58;12.82;;;4.63;;
69226;SDS011;56334;52.398;7.552;2023-06-10T03:03:24;11.82;;;4.97;;
69226;SDS011;56334;52.398;7.552;2023-06-10T03:05:52;13.07;;;5.05;;
69226;SDS011;56334;52.398;7.552;2023-06-10T03:08:18;11.75;;;5.10;;
69226;SDS011;56334;52.398;7.552;2023-06-10T03:10:44;13.40;;;5.35;;
69226;SDS011;56334;52.398;7.552;2023-06-10T03:13:10;11.63;;;4.97;;
69226;SDS011;56334;52.398;7.552;2023-06-10T03:15:36;11.25;;;4.70;;
69226;SDS011;56334;52.398;7.552;2023-06-10T03:18:02;13.45;;;5.00;;
69226;SDS011;56334;52.398;7.552;2023-06-10T03:20:28;13.13;;;5.20;;
69226;SDS011;56334;52.398;7.552;2023-06-10T03:22:55;11.80;;;5.03;;
69226;SDS011;56334;52.398;7.552;2023-06-10T03:25:21;11.20;;;5.07;;
69226;SDS011;56334;52.398;7.552;2023-06-10T03:27:47;13.30;;;4.72;;
69226;SDS011;56334;52.398;7.552;2023-06-10T03:30:13;13.45;;;5.25;;
69226;SDS011;56334;52.398;7.552;2023-06-10T03:32:40;11.38;;;5.35;;
69226;SDS011;56334;52.398;7.552;2023-06-10T03:35:06;13.20;;;5.32;;
69226;SDS011;56334;52.398;7.552;2023-06-10T03:37:32;12.13;;;4.90;;
69226;SDS011;56334;52.398;7.552;2023-06-10T03:39:58;13.82;;;5.13;;
69226;SDS011;56334;52.398;7.552;2023-06-10T03:42:24;14.32;;;5.55;;
69226;SDS011;56334;52.398;7.552;2023-06-10T03:44:50;12.90;;;5.32;;
69226;SDS011;56334;52.398;7.552;2023-06-10T03:47:16;11.55;;;5.15;;
69226;SDS011;56334;52.398;7.552;2023-06-10T03:49:42;12.90;;;5.45;;
69226;SDS011;56334;52.398;7.552;2023-06-10T03:52:08;13.15;;;5.20;;
69226;SDS011;56334;52.398;7.552;2023-06-10T03:54:34;13.35;;;5.57;;
69226;SDS011;56334;52.398;7.552;2023-06-10T03:57:00;12.00;;;4.95;;
69226;SDS011;56334;52.398;7.552;2023-06-10T03:59:28;11.55;;;4.60;;
69226;SDS011;56334;52.398;7.552;2023-06-10T04:01:54;10.50;;;4.65;;
69226;SDS011;56334;52.398;7.552;2023-06-10T04:04:20;11.48;;;4.65;;
69226;SDS011;56334;52.398;7.552;2023-06-10T04:06:46;12.35;;;5.38;;
69226;SDS011;56334;52.398;7.552;2023-06-10T04:09:13;11.80;;;5.40;;
69226;SDS011;56334;52.398;7.552;2023-06-10T04:11:39;12.32;;;4.72;;
69226;SDS011;56334;52.398;7.552;2023-06-10T04:14:05;11.82;;;4.68;;
69226;SDS011;56334;52.398;7.552;2023-06-10T04:16:31;12.73;;;4.47;;
69226;SDS011;56334;52.398;7.552;2023-06-10T04:18:58;14.82;;;5.57;;
69226;SDS011;56334;52.398;7.552;2023-06-10T04:21:24;14.98;;;5.18;;
69226;SDS011;56334;52.398;7.552;2023-06-10T04:23:50;11.95;;;4.82;;
69226;SDS011;56334;52.398;7.552;2023-06-10T04:26:16;11.90;;;5.20;;
69226;SDS011;56334;52.398;7.552;2023-06-10T04:28:43;13.68;;;5.05;;
69226;SDS011;56334;52.398;7.552;2023-06-10T04:31:09;13.27;;;5.10;;
69226;SDS011;56334;52.398;7.552;2023-06-10T04:33:35;13.05;;;5.00;;
69226;SDS011;56334;52.398;7.552;2023-06-10T04:36:01;11.27;;;4.97;;
69226;SDS011;56334;52.398;7.552;2023-06-10T04:38:27;12.68;;;5.22;;
69226;SDS011;56334;52.398;7.552;2023-06-10T04:40:56;12.93;;;5.40;;
69226;SDS011;56334;52.398;7.552;2023-06-10T04:43:22;11.40;;;4.57;;
69226;SDS011;56334;52.398;7.552;2023-06-10T04:45:48;11.07;;;5.20;;
69226;SDS011;56334;52.398;7.552;2023-06-10T04:48:14;11.32;;;4.63;;
69226;SDS011;56334;52.398;7.552;2023-06-10T04:50:40;10.02;;;4.75;;
69226;SDS011;56334;52.398;7.552;2023-06-10T04:53:06;11.55;;;5.03;;
69226;SDS011;56334;52.398;7.552;2023-06-10T04:55:33;12.02;;;5.40;;
69226;SDS011;56334;52.398;7.552;2023-06-10T04:57:59;11.95;;;5.47;;
69226;SDS011;56334;52.398;7.552;2023-06-10T05:00:25;9.80;;;4.75;;
69226;SDS011;56334;52.398;7.552;2023-06-10T05:02:51;9.82;;;4.60;;
69226;SDS011;56334;52.398;7.552;2023-06-10T05:05:18;12.38;;;4.55;;
69226;SDS011;56334;52.398;7.552;2023-06-10T05:07:44;14.25;;;5.78;;
69226;SDS011;56334;52.398;7.552;2023-06-10T05:10:10;11.65;;;5.03;;
69226;SDS011;56334;52.398;7.552;2023-06-10T05:12:40;14.00;;;5.35;;
69226;SDS011;56334;52.398;7.552;2023-06-10T05:17:32;12.57;;;5.18;;
69226;SDS011;56334;52.398;7.552;2023-06-10T05:19:58;11.38;;;5.20;;
69226;SDS011;56334;52.398;7.552;2023-06-10T05:22:24;12.70;;;5.00;;
69226;SDS011;56334;52.398;7.552;2023-06-10T05:24:50;12.63;;;5.50;;
69226;SDS011;56334;52.398;7.552;2023-06-10T05:27:16;14.32;;;5.40;;
69226;SDS011;56334;52.398;7.552;2023-06-10T05:29:42;12.95;;;5.35;;
69226;SDS011;56334;52.398;7.552;2023-06-10T05:32:08;11.48;;;4.93;;
69226;SDS011;56334;52.398;7.552;2023-06-10T05:34:34;11.52;;;5.30;;
69226;SDS011;56334;52.398;7.552;2023-06-10T05:37:00;13.05;;;5.60;;
69226;SDS011;56334;52.398;7.552;2023-06-10T05:39:26;12.00;;;5.07;;
69226;SDS011;56334;52.398;7.552;2023-06-10T05:41:52;12.75;;;5.13;;
69226;SDS011;56334;52.398;7.552;2023-06-10T05:44:18;15.30;;;5.40;;
69226;SDS011;56334;52.398;7.552;2023-06-10T05:46:44;10.13;;;5.05;;
69226;SDS011;56334;52.398;7.552;2023-06-10T05:49:10;13.52;;;5.18;;
69226;SDS011;56334;52.398;7.552;2023-06-10T05:51:36;11.25;;;5.20;;
69226;SDS011;56334;52.398;7.552;2023-06-10T05:54:03;13.27;;;5.50;;
69226;SDS011;56334;52.398;7.552;2023-06-10T05:56:29;11.85;;;5.45;;
69226;SDS011;56334;52.398;7.552;2023-06-10T05:58:55;11.05;;;5.50;;
69226;SDS011;56334;52.398;7.552;2023-06-10T06:01:21;11.48;;;5.03;;
69226;SDS011;56334;52.398;7.552;2023-06-10T06:03:47;11.38;;;5.28;;
69226;SDS011;56334;52.398;7.552;2023-06-10T06:06:13;13.18;;;5.72;;
69226;SDS011;56334;52.398;7.552;2023-06-10T06:08:39;12.23;;;5.57;;
69226;SDS011;56334;52.398;7.552;2023-06-10T06:11:05;11.38;;;5.38;;
69226;SDS011;56334;52.398;7.552;2023-06-10T06:13:31;10.10;;;5.13;;
69226;SDS011;56334;52.398;7.552;2023-06-10T06:15:57;12.88;;;5.50;;
69226;SDS011;56334;52.398;7.552;2023-06-10T06:18:23;10.27;;;4.85;;
69226;SDS011;56334;52.398;7.552;2023-06-10T06:20:49;11.75;;;5.40;;
69226;SDS011;56334;52.398;7.552;2023-06-10T06:23:15;13.90;;;5.82;;
69226;SDS011;56334;52.398;7.552;2023-06-10T06:25:41;12.07;;;5.28;;
69226;SDS011;56334;52.398;7.552;2023-06-10T06:28:07;10.25;;;4.80;;
69226;SDS011;56334;52.398;7.552;2023-06-10T06:30:34;12.23;;;5.47;;
69226;SDS011;56334;52.398;7.552;2023-06-10T06:33:00;10.18;;;4.82;;
69226;SDS011;56334;52.398;7.552;2023-06-10T06:35:26;11.95;;;5.18;;
69226;SDS011;56334;52.398;7.552;2023-06-10T06:37:52;10.05;;;4.68;;
69226;SDS011;56334;52.398;7.552;2023-06-10T06:40:18;11.20;;;4.72;;
69226;SDS011;56334;52.398;7.552;2023-06-10T06:42:44;10.93;;;4.65;;
69226;SDS011;56334;52.398;7.552;2023-06-10T06:45:10;11.57;;;5.68;;
69226;SDS011;56334;52.398;7.552;2023-06-10T06:47:37;14.38;;;6.03;;
69226;SDS011;56334;52.398;7.552;2023-06-10T06:52:29;12.18;;;5.10;;
69226;SDS011;56334;52.398;7.552;2023-06-10T06:54:55;11.80;;;4.95;;
69226;SDS011;56334;52.398;7.552;2023-06-10T06:57:21;14.82;;;5.65;;
69226;SDS011;56334;52.398;7.552;2023-06-10T06:59:48;12.48;;;5.53;;
69226;SDS011;56334;52.398;7.552;2023-06-10T07:02:14;10.90;;;5.15;;
69226;SDS011;56334;52.398;7.552;2023-06-10T07:04:40;11.82;;;5.20;;
69226;SDS011;56334;52.398;7.552;2023-06-10T07:07:07;10.63;;;4.72;;
69226;SDS011;56334;52.398;7.552;2023-06-10T07:09:36;12.07;;;5.05;;
69226;SDS011;56334;52.398;7.552;2023-06-10T07:12:03;14.70;;;5.15;;
69226;SDS011;56334;52.398;7.552;2023-06-10T07:14:29;11.45;;;4.82;;
69226;SDS011;56334;52.398;7.552;2023-06-10T07:16:55;13.25;;;5.38;;
69226;SDS011;56334;52.398;7.552;2023-06-10T07:19:21;11.25;;;4.85;;
69226;SDS011;56334;52.398;7.552;2023-06-10T07:21:47;10.93;;;4.82;;
69226;SDS011;56334;52.398;7.552;2023-06-10T07:24:13;10.25;;;4.70;;
69226;SDS011;56334;52.398;7.552;2023-06-10T07:26:39;10.75;;;4.60;;
69226;SDS011;56334;52.398;7.552;2023-06-10T07:29:05;11.35;;;5.13;;
69226;SDS011;56334;52.398;7.552;2023-06-10T07:31:31;12.38;;;4.78;;
69226;SDS011;56334;52.398;7.552;2023-06-10T07:33:57;10.18;;;4.25;;
69226;SDS011;56334;52.398;7.552;2023-06-10T07:36:23;11.75;;;5.10;;
69226;SDS011;56334;52.398;7.552;2023-06-10T07:38:52;12.38;;;4.72;;
69226;SDS011;56334;52.398;7.552;2023-06-10T07:41:19;12.82;;;4.65;;
69226;SDS011;56334;52.398;7.552;2023-06-10T07:43:45;9.95;;;4.70;;
69226;SDS011;56334;52.398;7.552;2023-06-10T07:46:11;11.02;;;4.75;;
69226;SDS011;56334;52.398;7.552;2023-06-10T07:48:37;10.45;;;4.50;;
69226;SDS011;56334;52.398;7.552;2023-06-10T07:51:03;9.90;;;4.30;;
69226;SDS011;56334;52.398;7.552;2023-06-10T07:53:29;12.50;;;5.32;;
69226;SDS011;56334;52.398;7.552;2023-06-10T07:55:55;12.18;;;4.97;;
69226;SDS011;56334;52.398;7.552;2023-06-10T07:58:21;11.25;;;4.82;;
69226;SDS011;56334;52.398;7.552;2023-06-10T08:00:47;10.50;;;4.45;;
69226;SDS011;56334;52.398;7.552;2023-06-10T08:03:14;11.38;;;4.53;;
69226;SDS011;56334;52.398;7.552;2023-06-10T08:05:40;10.55;;;4.40;;
69226;SDS011;56334;52.398;7.552;2023-06-10T08:08:06;13.43;;;4.78;;
69226;SDS011;56334;52.398;7.552;2023-06-10T08:10:32;10.05;;;4.50;;
69226;SDS011;56334;52.398;7.552;2023-06-10T08:15:25;11.90;;;4.72;;
69226;SDS011;56334;52.398;7.552;2023-06-10T08:17:51;11.32;;;4.80;;
69226;SDS011;56334;52.398;7.552;2023-06-10T08:20:17;12.35;;;4.68;;
69226;SDS011;56334;52.398;7.552;2023-06-10T08:22:43;12.13;;;4.18;;
69226;SDS011;56334;52.398;7.552;2023-06-10T08:25:09;14.40;;;5.30;;
69226;SDS011;56334;52.398;7.552;2023-06-10T08:27:35;10.48;;;4.57;;
69226;SDS011;56334;52.398;7.552;2023-06-10T08:30:02;10.27;;;4.53;;
69226;SDS011;56334;52.398;7.552;2023-06-10T08:32:28;11.05;;;4.45;;
69226;SDS011;56334;52.398;7.552;2023-06-10T08:34:54;11.32;;;4.35;;
69226;SDS011;56334;52.398;7.552;2023-06-10T08:37:20;10.35;;;4.60;;
69226;SDS011;56334;52.398;7.552;2023-06-10T08:39:47;11.40;;;4.65;;
69226;SDS011;56334;52.398;7.552;2023-06-10T08:42:22;10.80;;;4.55;;
69226;SDS011;56334;52.398;7.552;2023-06-10T08:44:50;11.82;;;4.68;;
69226;SDS011;56334;52.398;7.552;2023-06-10T08:47:18;10.57;;;4.15;;
69226;SDS011;56334;52.398;7.552;2023-06-10T08:49:46;9.90;;;4.18;;
69226;SDS011;56334;52.398;7.552;2023-06-10T08:52:16;10.60;;;4.53;;
69226;SDS011;56334;52.398;7.552;2023-06-10T08:54:43;10.15;;;4.78;;
69226;SDS011;56334;52.398;7.552;2023-06-10T08:57:15;10.68;;;4.70;;
69226;SDS011;56334;52.398;7.552;2023-06-10T08:59:41;12.50;;;4.45;;
69226;SDS011;56334;52.398;7.552;2023-06-10T09:02:07;10.70;;;4.70;;
69226;SDS011;56334;52.398;7.552;2023-06-10T09:04:34;10.50;;;4.38;;
69226;SDS011;56334;52.398;7.552;2023-06-10T09:07:00;10.70;;;4.32;;
69226;SDS011;56334;52.398;7.552;2023-06-10T09:09:28;9.73;;;4.13;;
69226;SDS011;56334;52.398;7.552;2023-06-10T09:11:55;10.27;;;4.25;;
69226;SDS011;56334;52.398;7.552;2023-06-10T09:14:21;12.15;;;4.65;;
69226;SDS011;56334;52.398;7.552;2023-06-10T09:16:48;13.18;;;4.40;;
69226;SDS011;56334;52.398;7.552;2023-06-10T09:19:15;10.05;;;3.88;;
69226;SDS011;56334;52.398;7.552;2023-06-10T09:21:42;10.45;;;4.53;;
69226;SDS011;56334;52.398;7.552;2023-06-10T09:24:08;9.68;;;4.07;;
69226;SDS011;56334;52.398;7.552;2023-06-10T09:26:34;9.85;;;3.80;;
69226;SDS011;56334;52.398;7.552;2023-06-10T09:29:03;10.57;;;4.38;;
69226;SDS011;56334;52.398;7.552;2023-06-10T09:31:30;9.32;;;3.83;;
69226;SDS011;56334;52.398;7.552;2023-06-10T09:34:06;9.82;;;4.32;;
69226;SDS011;56334;52.398;7.552;2023-06-10T09:36:35;10.70;;;4.03;;
69226;SDS011;56334;52.398;7.552;2023-06-10T09:39:01;9.95;;;4.18;;
69226;SDS011;56334;52.398;7.552;2023-06-10T09:41:40;10.10;;;4.07;;
69226;SDS011;56334;52.398;7.552;2023-06-10T09:44:16;9.38;;;3.90;;
69226;SDS011;56334;52.398;7.552;2023-06-10T09:46:44;8.77;;;3.70;;
69226;SDS011;56334;52.398;7.552;2023-06-10T09:49:10;10.45;;;4.03;;
69226;SDS011;56334;52.398;7.552;2023-06-10T09:54:03;9.52;;;4.00;;
69226;SDS011;56334;52.398;7.552;2023-06-10T09:56:32;9.02;;;3.72;;
69226;SDS011;56334;52.398;7.552;2023-06-10T09:58:59;8.27;;;3.53;;
69226;SDS011;56334;52.398;7.552;2023-06-10T10:01:25;8.48;;;4.25;;
69226;SDS011;56334;52.398;7.552;2023-06-10T10:03:51;10.27;;;4.00;;
69226;SDS011;56334;52.398;7.552;2023-06-10T10:06:18;8.38;;;3.65;;
69226;SDS011;56334;52.398;7.552;2023-06-10T10:08:45;8.95;;;4.03;;
69226;SDS011;56334;52.398;7.552;2023-06-10T10:11:11;9.05;;;3.80;;
69226;SDS011;56334;52.398;7.552;2023-06-10T10:16:09;9.18;;;3.85;;
69226;SDS011;56334;52.398;7.552;2023-06-10T10:18:36;8.48;;;3.85;;
69226;SDS011;56334;52.398;7.552;2023-06-10T10:21:05;9.18;;;4.13;;
69226;SDS011;56334;52.398;7.552;2023-06-10T10:23:34;9.57;;;4.43;;
69226;SDS011;56334;52.398;7.552;2023-06-10T10:26:03;10.02;;;3.90;;
69226;SDS011;56334;52.398;7.552;2023-06-10T10:28:34;9.85;;;4.18;;
69226;SDS011;56334;52.398;7.552;2023-06-10T10:31:06;11.63;;;4.82;;
69226;SDS011;56334;52.398;7.552;2023-06-10T10:34:09;10.27;;;4.25;;
69226;SDS011;56334;52.398;7.552;2023-06-10T10:36:27;9.13;;;3.80;;
69226;SDS011;56334;52.398;7.552;2023-06-10T10:38:54;9.45;;;3.70;;
69226;SDS011;56334;52.398;7.552;2023-06-10T10:41:20;9.52;;;3.90;;
69226;SDS011;56334;52.398;7.552;2023-06-10T10:43:47;8.05;;;3.55;;
69226;SDS011;56334;52.398;7.552;2023-06-10T10:46:14;9.65;;;4.03;;
69226;SDS011;56334;52.398;7.552;2023-06-10T10:48:42;9.07;;;3.88;;
69226;SDS011;56334;52.398;7.552;2023-06-10T10:51:09;10.40;;;3.92;;
69226;SDS011;56334;52.398;7.552;2023-06-10T10:53:38;10.32;;;4.43;;
69226;SDS011;56334;52.398;7.552;2023-06-10T10:56:06;9.30;;;4.10;;
69226;SDS011;56334;52.398;7.552;2023-06-10T10:58:33;11.30;;;4.10;;
69226;SDS011;56334;52.398;7.552;2023-06-10T11:00:59;9.65;;;4.25;;
69226;SDS011;56334;52.398;7.552;2023-06-10T11:03:28;8.68;;;3.92;;
69226;SDS011;56334;52.398;7.552;2023-06-10T11:05:56;10.45;;;3.90;;
69226;SDS011;56334;52.398;7.552;2023-06-10T11:10:58;10.07;;;3.80;;
69226;SDS011;56334;52.398;7.552;2023-06-10T11:13:25;10.43;;;3.90;;
69226;SDS011;56334;52.398;7.552;2023-06-10T11:15:51;8.63;;;3.40;;
69226;SDS011;56334;52.398;7.552;2023-06-10T11:18:27;8.98;;;3.50;;
69226;SDS011;56334;52.398;7.552;2023-06-10T11:20:58;9.88;;;4.05;;
69226;SDS011;56334;52.398;7.552;2023-06-10T11:31:22;8.88;;;3.65;;
69226;SDS011;56334;52.398;7.552;2023-06-10T11:33:50;9.20;;;3.55;;
69226;SDS011;56334;52.398;7.552;2023-06-10T11:36:17;9.18;;;3.88;;
69226;SDS011;56334;52.398;7.552;2023-06-10T11:41:10;9.02;;;3.95;;
69226;SDS011;56334;52.398;7.552;2023-06-10T11:43:37;9.98;;;3.85;;
69226;SDS011;56334;52.398;7.552;2023-06-10T11:46:07;10.02;;;3.95;;
69226;SDS011;56334;52.398;7.552;2023-06-10T11:48:33;8.02;;;3.70;;
69226;SDS011;56334;52.398;7.552;2023-06-10T11:50:59;9.00;;;3.78;;
69226;SDS011;56334;52.398;7.552;2023-06-10T11:53:26;8.30;;;3.60;;
69226;SDS011;56334;52.398;7.552;2023-06-10T11:55:53;8.90;;;3.50;;
69226;SDS011;56334;52.398;7.552;2023-06-10T11:58:20;8.38;;;3.50;;
69226;SDS011;56334;52.398;7.552;2023-06-10T12:00:47;8.30;;;3.72;;
69226;SDS011;56334;52.398;7.552;2023-06-10T12:03:13;8.75;;;3.85;;
69226;SDS011;56334;52.398;7.552;2023-06-10T12:05:39;9.82;;;3.78;;
69226;SDS011;56334;52.398;7.552;2023-06-10T12:08:11;8.77;;;3.85;;
69226;SDS011;56334;52.398;7.552;2023-06-10T12:10:41;8.50;;;3.90;;
69226;SDS011;56334;52.398;7.552;2023-06-10T12:13:10;9.68;;;3.60;;
69226;SDS011;56334;52.398;7.552;2023-06-10T12:15:36;8.50;;;4.35;;
69226;SDS011;56334;52.398;7.552;2023-06-10T12:18:02;10.70;;;4.50;;
69226;SDS011;56334;52.398;7.552;2023-06-10T12:20:30;10.10;;;3.95;;
69226;SDS011;56334;52.398;7.552;2023-06-10T12:23:00;9.30;;;4.10;;
69226;SDS011;56334;52.398;7.552;2023-06-10T12:25:27;14.50;;;5.68;;
69226;SDS011;56334;52.398;7.552;2023-06-10T12:27:53;9.52;;;4.30;;
69226;SDS011;56334;52.398;7.552;2023-06-10T12:30:23;8.02;;;3.67;;
69226;SDS011;56334;52.398;7.552;2023-06-10T12:32:51;11.43;;;4.18;;
69226;SDS011;56334;52.398;7.552;2023-06-10T12:35:23;9.32;;;4.05;;
69226;SDS011;56334;52.398;7.552;2023-06-10T12:40:30;10.70;;;4.50;;
69226;SDS011;56334;52.398;7.552;2023-06-10T12:42:57;9.63;;;4.30;;
69226;SDS011;56334;52.398;7.552;2023-06-10T12:45:29;8.10;;;4.13;;
69226;SDS011;56334;52.398;7.552;2023-06-10T12:50:32;8.60;;;4.00;;
69226;SDS011;56334;52.398;7.552;2023-06-10T12:52:59;9.60;;;4.07;;
69226;SDS011;56334;52.398;7.552;2023-06-10T12:55:26;8.35;;;4.03;;
69226;SDS011;56334;52.398;7.552;2023-06-10T12:57:53;9.13;;;3.83;;
69226;SDS011;56334;52.398;7.552;2023-06-10T13:00:20;10.10;;;4.03;;
69226;SDS011;56334;52.398;7.552;2023-06-10T13:02:48;9.38;;;3.92;;
69226;SDS011;56334;52.398;7.552;2023-06-10T13:05:16;9.75;;;3.75;;
69226;SDS011;56334;52.398;7.552;2023-06-10T13:07:43;9.60;;;3.75;;
69226;SDS011;56334;52.398;7.552;2023-06-10T13:10:09;10.52;;;4.22;;
69226;SDS011;56334;52.398;7.552;2023-06-10T13:12:35;8.90;;;3.97;;
69226;SDS011;56334;52.398;7.552;2023-06-10T13:15:02;8.75;;;3.85;;
69226;SDS011;56334;52.398;7.552;2023-06-10T13:17:28;9.10;;;3.67;;
69226;SDS011;56334;52.398;7.552;2023-06-10T13:19:55;9.60;;;4.13;;
69226;SDS011;56334;52.398;7.552;2023-06-10T13:22:21;11.50;;;3.75;;
69226;SDS011;56334;52.398;7.552;2023-06-10T13:24:49;11.10;;;4.32;;
69226;SDS011;56334;52.398;7.552;2023-06-10T13:27:15;9.05;;;3.97;;
69226;SDS011;56334;52.398;7.552;2023-06-10T13:29:41;9.82;;;3.80;;
69226;SDS011;56334;52.398;7.552;2023-06-10T13:32:07;7.68;;;3.65;;
69226;SDS011;56334;52.398;7.552;2023-06-10T13:34:33;9.40;;;4.95;;
69226;SDS011;56334;52.398;7.552;2023-06-10T13:36:59;9.05;;;4.10;;
69226;SDS011;56334;52.398;7.552;2023-06-10T13:39:25;8.40;;;4.22;;
69226;SDS011;56334;52.398;7.552;2023-06-10T13:41:52;8.48;;;3.75;;
69226;SDS011;56334;52.398;7.552;2023-06-10T13:44:18;9.02;;;3.97;;
69226;SDS011;56334;52.398;7.552;2023-06-10T13:46:44;8.52;;;3.88;;
69226;SDS011;56334;52.398;7.552;2023-06-10T13:49:10;15.40;;;8.13;;
69226;SDS011;56334;52.398;7.552;2023-06-10T13:51:36;8.40;;;3.85;;
69226;SDS011;56334;52.398;7.552;2023-06-10T13:54:02;8.82;;;4.10;;
69226;SDS011;56334;52.398;7.552;2023-06-10T13:56:28;9.98;;;4.05;;
69226;SDS011;56334;52.398;7.552;2023-06-10T13:58:55;8.23;;;3.70;;
69226;SDS011;56334;52.398;7.552;2023-06-10T14:01:21;8.52;;;3.78;;
69226;SDS011;56334;52.398;7.552;2023-06-10T14:03:47;7.45;;;3.38;;
69226;SDS011;56334;52.398;7.552;2023-06-10T14:06:13;8.57;;;3.60;;
69226;SDS011;56334;52.398;7.552;2023-06-10T14:08:43;8.75;;;3.97;;
69226;SDS011;56334;52.398;7.552;2023-06-10T14:11:09;9.55;;;3.72;;
69226;SDS011;56334;52.398;7.552;2023-06-10T14:13:36;8.02;;;3.58;;
69226;SDS011;56334;52.398;7.552;2023-06-10T14:16:03;7.63;;;3.78;;
69226;SDS011;56334;52.398;7.552;2023-06-10T14:18:30;8.20;;;3.70;;
69226;SDS011;56334;52.398;7.552;2023-06-10T14:20:56;8.20;;;3.80;;
69226;SDS011;56334;52.398;7.552;2023-06-10T14:23:22;10.18;;;4.00;;
69226;SDS011;56334;52.398;7.552;2023-06-10T14:25:50;7.85;;;3.85;;
69226;SDS011;56334;52.398;7.552;2023-06-10T14:28:16;9.07;;;4.40;;
69226;SDS011;56334;52.398;7.552;2023-06-10T14:30:42;8.95;;;4.20;;
69226;SDS011;56334;52.398;7.552;2023-06-10T14:33:08;8.13;;;4.00;;
69226;SDS011;56334;52.398;7.552;2023-06-10T14:35:34;8.13;;;3.90;;
69226;SDS011;56334;52.398;7.552;2023-06-10T14:38:01;9.23;;;4.20;;
69226;SDS011;56334;52.398;7.552;2023-06-10T14:40:29;7.78;;;3.67;;
69226;SDS011;56334;52.398;7.552;2023-06-10T14:42:56;9.07;;;4.03;;
69226;SDS011;56334;52.398;7.552;2023-06-10T14:45:22;7.90;;;4.07;;
69226;SDS011;56334;52.398;7.552;2023-06-10T14:47:50;7.90;;;4.00;;
69226;SDS011;56334;52.398;7.552;2023-06-10T14:50:16;8.27;;;4.43;;
69226;SDS011;56334;52.398;7.552;2023-06-10T14:52:42;9.15;;;4.38;;
69226;SDS011;56334;52.398;7.552;2023-06-10T14:55:08;9.50;;;4.38;;
69226;SDS011;56334;52.398;7.552;2023-06-10T14:57:34;8.82;;;4.30;;
69226;SDS011;56334;52.398;7.552;2023-06-10T15:00:00;8.15;;;4.03;;
69226;SDS011;56334;52.398;7.552;2023-06-10T15:02:26;9.00;;;4.20;;
69226;SDS011;56334;52.398;7.552;2023-06-10T15:04:52;8.65;;;4.20;;
69226;SDS011;56334;52.398;7.552;2023-06-10T15:07:18;9.30;;;4.40;;
69226;SDS011;56334;52.398;7.552;2023-06-10T15:09:44;8.20;;;4.18;;
69226;SDS011;56334;52.398;7.552;2023-06-10T15:12:11;9.80;;;4.68;;
69226;SDS011;56334;52.398;7.552;2023-06-10T15:14:37;10.10;;;4.43;;